Time;durP1;ratioP1;P1;durP2;ratioP2;P2;SDS_P1;SDS_P2;PMS_P1;PMS_P2;Temp;Humidity;BMP_temperature;BMP_pressure;BME280_temperature;BME280_humidity;BME280_pressure;Samples;Min_cycle;Max_cycle;Signal;HPM_P1;HPM_P2
2022/01/19 00:00:15;;;;;;;4.77;4.27;;;3.80;99.90;;;;;;4967113;28;20197;-87
2022/01/19 00:02:41;;;;;;;4.22;3.83;;;3.80;99.90;;;;;;4963960;28;20220;-84
2022/01/19 00:05:08;;;;;;;5.70;4.10;;;3.60;99.90;;;;;;4975983;28;20319;-87
2022/01/19 00:07:34;;;;;;;9.07;4.30;;;3.60;99.90;;;;;;4958388;28;20276;-86
2022/01/19 00:10:04;;;;;;;5.80;4.10;;;;;;;;;;4968343;28;20212;-87
2022/01/19 00:12:33;;;;;;;8.07;4.50;;;3.30;99.90;;;;;;4965594;28;20262;-87
2022/01/19 00:14:59;;;;;;;8.55;4.30;;;3.10;99.90;;;;;;4977252;28;20800;-86
2022/01/19 00:17:25;;;;;;;10.05;5.03;;;3.10;99.90;;;;;;4960050;28;20609;-88
2022/01/19 00:19:51;;;;;;;6.43;4.40;;;;;;;;;;4981775;28;20176;-84
2022/01/19 00:22:17;;;;;;;7.40;4.70;;;3.00;99.90;;;;;;4977878;28;20475;-85
2022/01/19 00:24:43;;;;;;;8.33;6.03;;;;;;;;;;4963220;28;20200;-87
2022/01/19 00:27:09;;;;;;;7.70;4.47;;;2.90;99.90;;;;;;4969060;28;20276;-85
2022/01/19 00:29:35;;;;;;;6.10;4.67;;;;;;;;;;4962319;28;20286;-87
2022/01/19 00:32:01;;;;;;;8.53;3.77;;;;;;;;;;4965381;28;20192;-86
2022/01/19 00:34:28;;;;;;;7.50;4.80;;;2.30;99.90;;;;;;4970484;28;20443;-86
2022/01/19 00:36:54;;;;;;;7.00;4.80;;;2.20;99.90;;;;;;4962494;28;20922;-86
2022/01/19 00:39:19;;;;;;;15.30;4.78;;;2.10;99.90;;;;;;4969353;28;20234;-86
2022/01/19 00:41:45;;;;;;;7.73;4.50;;;2.00;99.90;;;;;;4961380;28;20649;-86
2022/01/19 00:44:11;;;;;;;5.87;3.17;;;;;;;;;;4963048;28;20184;-86
2022/01/19 00:46:37;;;;;;;4.70;2.80;;;1.80;99.90;;;;;;4966900;28;20198;-86
2022/01/19 00:49:03;;;;;;;8.27;2.90;;;;;;;;;;4965168;28;20454;-87
2022/01/19 00:51:29;;;;;;;9.40;5.17;;;;;;;;;;4966012;28;20184;-87
2022/01/19 00:53:54;;;;;;;12.33;6.10;;;;;;;;;;4965303;28;20454;-87
2022/01/19 00:56:21;;;;;;;9.60;5.50;;;1.40;99.90;;;;;;4964872;28;20496;-87
2022/01/19 00:58:46;;;;;;;10.35;4.40;;;1.30;99.90;;;;;;4963437;28;20454;-86
2022/01/19 01:01:12;;;;;;;6.23;3.33;;;1.00;99.90;;;;;;4959463;28;20184;-86
2022/01/19 01:03:38;;;;;;;6.47;3.60;;;;;;;;;;4963200;28;20184;-86
2022/01/19 01:06:04;;;;;;;3.60;2.90;;;;;;;;;;4958625;28;20211;-85
2022/01/19 01:08:29;;;;;;;6.53;3.87;;;0.60;99.90;;;;;;4958119;28;20419;-84
2022/01/19 01:10:55;;;;;;;6.70;5.03;;;;;;;;;;4964487;28;20459;-87
2022/01/19 01:16:17;;;;;;;10.45;3.75;;;0.10;99.90;;;;;;4977142;28;20278;-85
2022/01/19 01:18:43;;;;;;;4.57;3.50;;;;;;;;;;4968293;28;20892;-85
2022/01/19 01:21:09;;;;;;;7.73;3.73;;;;;;;;;;4964434;28;20217;-84
2022/01/19 01:23:35;;;;;;;4.97;3.30;;;0.00;99.90;;;;;;4958900;28;20450;-86
2022/01/19 01:26:01;;;;;;;6.03;3.30;;;;;;;;;;4971566;28;20458;-85
2022/01/19 01:28:27;;;;;;;6.78;3.20;;;-0.10;99.90;;;;;;4981970;28;20192;-84
2022/01/19 01:30:53;;;;;;;6.93;4.50;;;;;;;;;;4961133;28;20195;-88
2022/01/19 01:33:19;;;;;;;4.60;3.63;;;;;;;;;;4972956;28;20663;-88
2022/01/19 01:35:45;;;;;;;7.75;3.35;;;0.10;99.90;;;;;;4967212;28;20850;-88
2022/01/19 01:38:11;;;;;;;8.18;4.93;;;0.00;99.90;;;;;;4963063;28;20185;-86
2022/01/19 01:40:40;;;;;;;5.07;4.07;;;-0.10;99.90;;;;;;4962459;28;20191;-85
2022/01/19 01:43:07;;;;;;;7.88;4.05;;;-0.20;99.90;;;;;;4961411;28;20220;-86
2022/01/19 01:45:37;;;;;;;9.98;4.43;;;;;;;;;;4962870;28;20208;-87
2022/01/19 01:53:26;;;;;;;10.18;4.10;;;-0.30;99.90;;;;;;4963659;28;20222;-87
2022/01/19 01:55:54;;;;;;;9.38;4.68;;;-0.30;99.90;;;;;;4963078;28;20207;-86
2022/01/19 01:58:20;;;;;;;6.18;4.07;;;-0.40;99.90;;;;;;4958019;28;20203;-86
2022/01/19 02:00:46;;;;;;;6.50;4.77;;;-0.30;99.90;;;;;;4952153;28;20390;-87
2022/01/19 02:03:12;;;;;;;8.57;5.15;;;-0.30;99.90;;;;;;4952920;28;20315;-85
2022/01/19 02:05:52;;;;;;;8.03;4.43;;;;;;;;;;4956509;28;20748;-87
2022/01/19 02:08:21;;;;;;;13.73;5.38;;;-0.50;99.90;;;;;;4966586;28;20180;-88
2022/01/19 02:11:17;;;;;;;8.90;4.88;;;-0.30;99.90;;;;;;4954927;28;20245;-85
2022/01/19 02:21:59;;;;;;;12.57;5.40;;;-0.50;99.90;;;;;;4968767;28;20505;-87
2022/01/19 02:24:31;;;;;;;7.93;5.10;;;-0.50;99.90;;;;;;4958903;28;20283;-86
2022/01/19 02:27:11;;;;;;;13.93;4.80;;;;;;;;;;4960104;28;20303;-87
2022/01/19 02:30:14;;;;;;;6.13;4.45;;;-0.50;99.90;;;;;;4961612;28;20219;-87
2022/01/19 02:40:28;;;;;;;17.45;5.95;;;-0.60;99.90;;;;;;4975892;28;20257;-86
2022/01/19 02:50:38;;;;;;;7.80;5.05;;;-0.90;99.90;;;;;;4965260;28;20252;-86
2022/01/19 02:53:03;;;;;;;10.80;5.80;;;-1.00;99.90;;;;;;4959380;28;20184;-86
2022/01/19 02:55:31;;;;;;;9.40;5.10;;;;;;;;;;4962354;28;20219;-87
2022/01/19 02:57:57;;;;;;;15.05;7.22;;;-1.00;99.90;;;;;;4959042;28;20184;-84
2022/01/19 03:08:50;;;;;;;13.05;6.82;;;-1.10;99.90;;;;;;4962601;28;20304;-87
2022/01/19 03:11:18;;;;;;;16.02;6.50;;;-1.00;99.90;;;;;;4961930;28;20195;-87
2022/01/19 03:13:45;;;;;;;12.32;7.30;;;-1.10;99.90;;;;;;4961333;28;20184;-86
2022/01/19 03:16:13;;;;;;;13.55;8.02;;;;;;;;;;4965854;28;20325;-86
2022/01/19 03:18:39;;;;;;;11.10;7.07;;;;;;;;;;4963387;28;20247;-86
2022/01/19 03:21:06;;;;;;;15.25;7.30;;;;;;;;;;4963009;28;20184;-86
2022/01/19 03:23:33;;;;;;;16.77;7.35;;;-1.00;99.90;;;;;;4961431;28;20187;-86
2022/01/19 03:26:01;;;;;;;13.15;7.65;;;;;;;;;;4963854;28;20206;-87
2022/01/19 03:28:27;;;;;;;24.77;8.23;;;;;;;;;;4959789;28;20195;-85
2022/01/19 03:30:53;;;;;;;18.05;8.55;;;;;;;;;;4961614;28;20183;-87
2022/01/19 03:33:19;;;;;;;13.32;7.47;;;-1.10;99.90;;;;;;4961528;28;20188;-85
2022/01/19 03:35:45;;;;;;;15.17;7.03;;;;;;;;;;4951668;28;20233;-87
2022/01/19 03:38:12;;;;;;;16.48;7.55;;;-1.10;99.90;;;;;;4941945;28;20847;-87
2022/01/19 03:40:38;;;;;;;13.48;7.88;;;-1.10;99.90;;;;;;4954985;28;20191;-85
2022/01/19 03:43:05;;;;;;;16.27;9.13;;;-1.10;99.90;;;;;;4957066;28;20211;-85
2022/01/19 03:45:33;;;;;;;21.58;9.43;;;-1.10;99.90;;;;;;4964352;28;20243;-86
2022/01/19 03:48:27;;;;;;;15.68;8.15;;;;;;;;;;4959771;28;20886;-87
2022/01/19 03:50:53;;;;;;;18.25;8.57;;;-1.10;99.90;;;;;;4967483;28;20207;-86
2022/01/19 03:53:18;;;;;;;20.67;8.87;;;-1.10;99.90;;;;;;4962516;28;20679;-87
2022/01/19 03:55:44;;;;;;;16.43;8.50;;;;;;;;;;4961866;28;20219;-86
2022/01/19 03:58:10;;;;;;;14.00;8.25;;;-1.00;99.90;;;;;;4962018;28;20278;-87
2022/01/19 04:00:41;;;;;;;15.77;9.33;;;-1.00;99.90;;;;;;4957140;28;20188;-84
2022/01/19 04:03:09;;;;;;;18.55;9.70;;;-1.10;99.90;;;;;;4972847;28;20188;-84
2022/01/19 04:05:57;;;;;;;16.95;8.55;;;;;;;;;;4987399;28;20276;-84
2022/01/19 04:08:23;;;;;;;24.13;10.68;;;;;;;;;;4974557;28;20196;-85
2022/01/19 04:10:49;;;;;;;17.23;9.50;;;;;;;;;;4961034;28;20230;-86
2022/01/19 04:13:32;;;;;;;27.08;10.68;;;;;;;;;;4964429;28;20263;-86
2022/01/19 04:15:58;;;;;;;16.90;8.98;;;;;;;;;;4981042;28;20200;-85
2022/01/19 04:18:25;;;;;;;13.05;8.00;;;-0.10;99.90;;;;;;4969185;28;20211;-86
2022/01/19 04:20:52;;;;;;;17.15;7.07;;;;;;;;;;4959271;28;20180;-86
2022/01/19 04:23:19;;;;;;;16.38;9.73;;;0.00;99.90;;;;;;4964845;28;20216;-86
2022/01/19 04:25:45;;;;;;;14.40;8.75;;;;;;;;;;4962099;28;20368;-86
2022/01/19 04:28:11;;;;;;;20.23;8.77;;;;;;;;;;4958668;28;20175;-87
2022/01/19 04:30:38;;;;;;;24.73;10.52;;;0.00;99.90;;;;;;4969314;28;20199;-87
2022/01/19 04:33:09;;;;;;;22.17;12.45;;;-0.10;99.90;;;;;;4962462;28;20184;-85
2022/01/19 04:35:46;;;;;;;40.83;11.30;;;0.00;99.90;;;;;;4979843;28;20204;-86
2022/01/19 04:39:18;;;;;;;21.33;10.80;;;-0.10;99.90;;;;;;4964540;28;20576;-85
2022/01/19 04:54:20;;;;;;;24.08;12.35;;;-0.30;99.90;;;;;;4966614;28;20195;-87
2022/01/19 04:54:53;;;;;;;23.48;12.15;;;;;;;;;;4963296;28;20212;-87
2022/01/19 05:03:08;;;;;;;26.80;14.10;;;-0.20;99.90;;;;;;4967571;28;20323;-88
2022/01/19 05:05:45;;;;;;;20.75;10.18;;;-0.10;99.90;;;;;;4966627;28;20204;-87
2022/01/19 05:08:32;;;;;;;15.68;10.13;;;;;;;;;;4966891;28;20183;-86
2022/01/19 05:13:50;;;;;;;18.15;9.15;;;0.00;99.90;;;;;;4962979;28;20249;-88
2022/01/19 05:16:19;;;;;;;16.95;7.55;;;0.00;99.90;;;;;;4962000;28;20207;-88
2022/01/19 05:18:48;;;;;;;18.27;8.80;;;0.10;99.90;;;;;;4988719;28;20255;-85
2022/01/19 05:21:14;;;;;;;27.83;9.52;;;0.10;99.90;;;;;;4976812;28;20564;-87
2022/01/19 05:23:40;;;;;;;28.95;10.88;;;0.10;99.90;;;;;;4957464;28;20184;-87
2022/01/19 05:26:06;;;;;;;17.50;9.10;;;;;;;;;;4956898;28;20254;-87
2022/01/19 05:28:32;;;;;;;23.43;10.90;;;0.00;99.90;;;;;;4970659;28;20176;-86
2022/01/19 05:30:58;;;;;;;15.13;9.87;;;;;;;;;;4979206;28;20672;-86
2022/01/19 05:33:23;;;;;;;25.17;13.30;;;;;;;;;;4957369;28;20197;-87
2022/01/19 05:35:49;;;;;;;20.07;13.23;;;;;;;;;;4959162;28;20475;-86
2022/01/19 05:38:15;;;;;;;14.53;7.87;;;;;;;;;;4959214;28;20435;-86
2022/01/19 05:40:41;;;;;;;17.40;9.30;;;0.00;99.90;;;;;;4955087;28;20936;-87
2022/01/19 05:43:07;;;;;;;25.10;12.40;;;;;;;;;;4958314;28;20468;-87
2022/01/19 05:45:33;;;;;;;25.90;11.23;;;;;;;;;;4956491;28;21262;-87
2022/01/19 05:47:59;;;;;;;21.17;10.63;;;;;;;;;;4961113;28;20207;-86
2022/01/19 05:50:25;;;;;;;22.27;10.55;;;;;;;;;;4973945;28;20447;-89
2022/01/19 05:52:51;;;;;;;23.52;11.35;;;;;;;;;;4961763;28;20370;-87
2022/01/19 05:55:17;;;;;;;24.30;12.43;;;;;;;;;;4959235;28;20707;-87
2022/01/19 05:57:43;;;;;;;25.33;13.80;;;;;;;;;;4955429;28;20279;-85
2022/01/19 06:00:10;;;;;;;15.82;8.95;;;0.00;99.90;;;;;;4960258;28;20443;-86
2022/01/19 06:02:36;;;;;;;15.70;9.65;;;;;;;;;;4956219;28;20215;-87
2022/01/19 06:05:03;;;;;;;23.25;11.73;;;-0.20;99.90;;;;;;4960218;28;20207;-86
2022/01/19 06:07:30;;;;;;;26.58;11.45;;;;;;;;;;4958330;28;20172;-86
2022/01/19 06:10:05;;;;;;;24.05;11.40;;;-0.10;99.90;;;;;;4966658;28;20188;-87
2022/01/19 06:12:31;;;;;;;19.30;11.25;;;;;;;;;;4979371;28;20192;-85
2022/01/19 06:14:57;;;;;;;23.48;11.73;;;;;;;;;;4979383;28;20211;-87
2022/01/19 06:17:23;;;;;;;25.90;11.43;;;-0.20;99.90;;;;;;4962213;28;20196;-87
2022/01/19 06:19:48;;;;;;;24.40;10.33;;;-0.20;99.90;;;;;;4954874;28;20199;-87
2022/01/19 06:22:16;;;;;;;17.90;10.10;;;;;;;;;;4963952;28;20506;-88
2022/01/19 06:24:43;;;;;;;22.55;10.95;;;;;;;;;;4955660;28;20204;-88
2022/01/19 06:27:10;;;;;;;19.50;10.75;;;-0.30;99.90;;;;;;4963280;28;20193;-88
2022/01/19 06:29:36;;;;;;;29.98;12.50;;;;;;;;;;4961042;28;20196;-86
2022/01/19 06:32:02;;;;;;;25.07;10.40;;;-0.50;99.90;;;;;;4965396;28;20191;-88
2022/01/19 06:34:28;;;;;;;19.00;11.10;;;;;;;;;;4960751;28;20447;-87
2022/01/19 06:36:54;;;;;;;27.05;11.75;;;;;;;;;;4956085;28;20466;-87
2022/01/19 06:39:20;;;;;;;28.08;11.48;;;;;;;;;;4960674;28;20191;-87
2022/01/19 06:41:46;;;;;;;25.80;10.57;;;-0.90;99.90;;;;;;4966998;28;20214;-86
2022/01/19 06:44:13;;;;;;;20.80;9.02;;;;;;;;;;4955797;28;20190;-88
2022/01/19 06:46:41;;;;;;;26.75;12.02;;;-0.90;99.90;;;;;;4961650;28;20222;-86
2022/01/19 06:49:07;;;;;;;19.25;11.65;;;;;;;;;;4957713;28;20184;-89
2022/01/19 06:51:33;;;;;;;37.07;11.70;;;;;;;;;;4955484;28;20180;-87
2022/01/19 06:53:59;;;;;;;25.90;10.80;;;;;;;;;;4964391;28;20435;-85
2022/01/19 06:56:25;;;;;;;22.20;11.05;;;;;;;;;;4977711;28;20534;-86
2022/01/19 06:58:51;;;;;;;30.13;12.03;;;;;;;;;;4957178;28;20282;-86
2022/01/19 07:01:16;;;;;;;18.83;10.07;;;-0.90;99.90;;;;;;4962243;28;20432;-86
2022/01/19 07:03:42;;;;;;;24.23;11.20;;;;;;;;;;4954630;28;20439;-84
2022/01/19 07:06:11;;;;;;;22.05;11.38;;;-1.10;99.90;;;;;;4959269;28;20334;-86
2022/01/19 07:08:38;;;;;;;34.47;11.23;;;-1.40;99.90;;;;;;4964360;28;20183;-85
2022/01/19 07:11:04;;;;;;;14.27;7.07;;;;;;;;;;4959619;28;20226;-86
2022/01/19 07:13:30;;;;;;;13.50;6.30;;;;;;;;;;4958145;28;20188;-87
2022/01/19 07:15:56;;;;;;;23.52;10.52;;;-1.60;99.90;;;;;;4959854;28;21658;-87
2022/01/19 07:18:22;;;;;;;25.83;11.33;;;;;;;;;;4955741;28;20240;-86
2022/01/19 07:20:47;;;;;;;20.57;11.50;;;;;;;;;;4953810;28;20301;-86
2022/01/19 07:23:13;;;;;;;24.70;12.53;;;;;;;;;;4948998;28;20488;-85
2022/01/19 07:25:39;;;;;;;20.43;10.60;;;-1.40;99.90;;;;;;4959209;28;20455;-87
2022/01/19 07:28:08;;;;;;;26.33;12.93;;;;;;;;;;4957644;28;20856;-85
2022/01/19 07:30:34;;;;;;;23.50;12.65;;;-1.20;99.90;;;;;;4963128;28;20257;-86
2022/01/19 07:33:00;;;;;;;22.98;12.43;;;-1.10;99.90;;;;;;4957709;28;20268;-86
2022/01/19 07:35:26;;;;;;;19.43;11.10;;;-1.00;99.90;;;;;;4954201;28;20239;-86
2022/01/19 07:37:52;;;;;;;18.50;11.43;;;;;;;;;;4950616;28;20542;-87
2022/01/19 07:40:18;;;;;;;26.80;12.88;;;;;;;;;;4953808;28;20434;-88
2022/01/19 07:42:44;;;;;;;32.03;15.05;;;-0.30;99.90;;;;;;4953501;28;20347;-86
2022/01/19 07:45:10;;;;;;;27.63;12.90;;;0.60;99.90;;;;;;4959092;28;20283;-87
2022/01/19 07:47:36;;;;;;;26.20;11.80;;;1.50;99.90;;;;;;4960333;28;20191;-87
2022/01/19 07:50:02;;;;;;;18.30;10.10;;;;;;;;;;4959055;28;20188;-87
2022/01/19 07:52:27;;;;;;;13.43;9.68;;;3.10;99.90;;;;;;4960088;28;20183;-85
2022/01/19 07:54:54;;;;;;;16.43;8.60;;;;;;;;;;4955466;28;20216;-87
2022/01/19 07:57:19;;;;;;;21.50;11.18;;;4.40;99.90;;;;;;4961482;28;20915;-84
2022/01/19 07:59:45;;;;;;;10.23;7.63;;;;;;;;;;4947685;28;20180;-84
2022/01/19 08:02:12;;;;;;;18.48;9.63;;;5.70;99.90;;;;;;4959835;28;20218;-86
2022/01/19 08:04:38;;;;;;;17.90;9.93;;;6.30;99.90;;;;;;4958082;28;20204;-88
2022/01/19 08:07:09;;;;;;;20.97;9.13;;;6.70;99.90;;;;;;4962965;28;20190;-86
2022/01/19 08:09:35;;;;;;;19.63;10.02;;;6.90;99.90;;;;;;4953736;28;20179;-86
2022/01/19 08:12:02;;;;;;;17.13;9.77;;;7.00;99.90;;;;;;4951153;28;20203;-85
2022/01/19 08:14:29;;;;;;;17.33;9.65;;;7.60;99.90;;;;;;4956545;28;20220;-84
2022/01/19 08:16:55;;;;;;;13.45;8.45;;;7.60;99.90;;;;;;4952879;28;20198;-86
2022/01/19 08:19:22;;;;;;;17.83;10.00;;;;;;;;;;4960106;28;20384;-86
2022/01/19 08:21:48;;;;;;;15.55;9.00;;;7.60;99.90;;;;;;4963420;28;20199;-86
2022/01/19 08:24:14;;;;;;;19.23;11.07;;;;;;;;;;4958678;28;21530;-87
2022/01/19 08:26:40;;;;;;;16.65;10.90;;;;;;;;;;4964911;28;20219;-87
2022/01/19 08:29:06;;;;;;;18.15;10.68;;;;;;;;;;4954484;28;20245;-87
2022/01/19 08:31:33;;;;;;;24.23;12.57;;;;;;;;;;4971785;28;20597;-85
2022/01/19 08:33:59;;;;;;;24.95;12.27;;;;;;;;;;4966903;28;20283;-88
2022/01/19 08:36:26;;;;;;;23.90;12.63;;;;;;;;;;4971332;28;20231;-85
2022/01/19 08:38:52;;;;;;;24.05;12.90;;;;;;;;;;4957934;28;20542;-86
2022/01/19 08:41:18;;;;;;;17.03;12.17;;;;;;;;;;4969648;28;21164;-86
2022/01/19 08:43:44;;;;;;;18.37;10.20;;;;;;;;;;4960009;28;20474;-85
2022/01/19 08:46:10;;;;;;;20.97;11.30;;;;;;;;;;4956678;28;20474;-84
2022/01/19 08:48:36;;;;;;;16.37;10.57;;;;;;;;;;4954345;28;20453;-86
2022/01/19 08:51:02;;;;;;;19.17;11.60;;;;;;;;;;4962730;28;20450;-85
2022/01/19 08:53:28;;;;;;;20.77;10.90;;;;;;;;;;4957316;28;20438;-86
2022/01/19 08:55:54;;;;;;;20.98;10.85;;;;;;;;;;4953810;28;20219;-83
2022/01/19 08:58:20;;;;;;;18.60;12.33;;;;;;;;;;4961544;28;20176;-86
2022/01/19 09:00:47;;;;;;;19.53;10.33;;;11.10;99.90;;;;;;4954819;28;20947;-84
2022/01/19 09:03:13;;;;;;;15.68;9.45;;;;;;;;;;4961697;28;20555;-87
2022/01/19 09:05:39;;;;;;;17.63;10.57;;;;;;;;;;4961907;28;20211;-87
2022/01/19 09:08:05;;;;;;;16.50;11.47;;;11.50;99.90;;;;;;4961653;28;21730;-87
2022/01/19 09:10:31;;;;;;;15.02;10.25;;;;;;;;;;4956864;28;20465;-87
2022/01/19 09:12:57;;;;;;;23.23;12.10;;;;;;;;;;4958118;28;20673;-84
2022/01/19 09:15:23;;;;;;;20.57;10.67;;;;;;;;;;4954599;28;20447;-83
2022/01/19 09:17:49;;;;;;;23.05;10.85;;;;;;;;;;4952460;28;20445;-86
2022/01/19 09:20:16;;;;;;;17.05;10.93;;;9.40;99.90;;;;;;4972772;28;20195;-83
2022/01/19 09:22:42;;;;;;;17.38;11.65;;;;;;;;;;4980091;28;20226;-86
2022/01/19 09:25:09;;;;;;;16.43;11.83;;;8.80;99.90;;;;;;4959508;28;22140;-86
2022/01/19 09:27:38;;;;;;;15.15;10.73;;;9.60;99.90;;;;;;4951266;28;20497;-85
2022/01/19 09:30:06;;;;;;;18.25;10.32;;;9.10;99.90;;;;;;4954966;28;20229;-86
2022/01/19 09:32:32;;;;;;;18.35;11.27;;;;;;;;;;4959720;28;20291;-86
2022/01/19 09:35:06;;;;;;;18.60;10.67;;;;;;;;;;4956707;28;20211;-87
2022/01/19 09:37:32;;;;;;;17.88;10.23;;;;;;;;;;4963208;28;20580;-85
2022/01/19 09:39:58;;;;;;;22.70;11.83;;;;;;;;;;4960459;28;20889;-86
2022/01/19 09:42:24;;;;;;;19.73;10.40;;;;;;;;;;4958193;28;20482;-86
2022/01/19 09:44:52;;;;;;;19.13;9.47;;;;;;;;;;4962055;28;20459;-87
2022/01/19 09:47:18;;;;;;;32.80;11.52;;;;;;;;;;4961109;28;20963;-86
2022/01/19 09:49:44;;;;;;;20.53;12.47;;;;;;;;;;4963355;28;20266;-86
2022/01/19 09:52:10;;;;;;;16.90;10.83;;;;;;;;;;4958716;28;20586;-85
2022/01/19 09:54:36;;;;;;;22.67;11.30;;;;;;;;;;4953931;28;20466;-86
2022/01/19 09:57:02;;;;;;;18.23;11.98;;;8.00;99.90;;;;;;4959525;28;20187;-83
2022/01/19 09:59:28;;;;;;;17.45;10.35;;;;;;;;;;4959244;28;20187;-84
2022/01/19 10:01:54;;;;;;;18.20;10.53;;;;;;;;;;4969216;28;20522;-87
2022/01/19 10:04:24;;;;;;;18.00;10.70;;;6.10;99.90;;;;;;4963706;28;20451;-84
2022/01/19 10:07:11;;;;;;;21.65;11.55;;;5.50;99.90;;;;;;4970844;28;20546;-85
2022/01/19 10:09:52;;;;;;;18.48;10.02;;;5.50;99.90;;;;;;4971335;28;20693;-86
2022/01/19 10:18:26;;;;;;;16.20;9.45;;;4.80;99.90;;;;;;4970482;28;20190;-85
2022/01/19 10:21:13;;;;;;;18.77;11.13;;;4.30;99.90;;;;;;4961315;28;20189;-86
2022/01/19 10:23:49;;;;;;;19.83;10.98;;;4.30;99.90;;;;;;4962767;28;20295;-84
2022/01/19 10:26:23;;;;;;;21.30;11.35;;;4.30;99.90;;;;;;4966842;28;21332;-85
2022/01/19 10:29:04;;;;;;;22.17;11.50;;;4.10;99.90;;;;;;4974155;28;20206;-85
2022/01/19 10:31:31;;;;;;;30.05;11.98;;;4.20;99.90;;;;;;4964913;28;20184;-83
2022/01/19 10:34:16;;;;;;;20.48;12.63;;;4.30;99.90;;;;;;4961629;28;20188;-85
2022/01/19 10:36:46;;;;;;;18.83;11.50;;;4.30;99.90;;;;;;4964023;28;20180;-84
2022/01/19 10:39:12;;;;;;;21.70;11.75;;;4.40;99.90;;;;;;4958774;28;20182;-84
2022/01/19 10:42:01;;;;;;;18.83;11.73;;;4.50;99.90;;;;;;4962685;28;20173;-86
2022/01/19 10:44:48;;;;;;;18.83;9.85;;;4.30;99.90;;;;;;4953493;28;20705;-85
2022/01/19 10:47:17;;;;;;;18.02;11.13;;;4.30;99.90;;;;;;4959021;28;20195;-85
2022/01/19 10:49:56;;;;;;;18.90;10.10;;;4.30;99.90;;;;;;4961801;28;20180;-84
2022/01/19 10:52:39;;;;;;;15.23;7.75;;;4.20;99.90;;;;;;4962593;28;20210;-86
2022/01/19 10:55:08;;;;;;;15.82;8.27;;;4.10;99.90;;;;;;4957694;28;20210;-85
2022/01/19 10:57:36;;;;;;;24.27;10.40;;;4.10;99.90;;;;;;4949790;28;20754;-84
2022/01/19 11:00:21;;;;;;;19.20;9.95;;;4.00;99.90;;;;;;4969507;28;20222;-84
2022/01/19 11:02:49;;;;;;;14.45;8.77;;;4.20;99.90;;;;;;4951805;28;20192;-85
2022/01/19 11:05:15;;;;;;;14.85;8.30;;;4.30;99.90;;;;;;4947880;28;20226;-85
2022/01/19 11:07:41;;;;;;;13.52;7.90;;;4.30;99.90;;;;;;4951815;28;20673;-86
2022/01/19 11:12:47;;;;;;;15.73;10.27;;;4.30;99.90;;;;;;4954805;28;20829;-85
2022/01/19 11:15:15;;;;;;;19.83;7.65;;;4.40;99.90;;;;;;4978122;28;20237;-85
2022/01/19 11:17:42;;;;;;;17.33;7.80;;;4.40;99.90;;;;;;4964180;28;20204;-85
2022/01/19 11:20:12;;;;;;;15.52;7.75;;;4.60;99.90;;;;;;4965584;28;20191;-86
2022/01/19 11:23:03;;;;;;;15.98;9.05;;;4.40;99.90;;;;;;4960308;28;21191;-86
2022/01/19 11:25:38;;;;;;;10.52;7.25;;;4.40;99.90;;;;;;4971465;28;20204;-84
2022/01/19 11:28:03;;;;;;;15.90;8.70;;;4.40;99.90;;;;;;4964311;28;20260;-83
2022/01/19 11:30:34;;;;;;;13.90;9.00;;;4.50;99.90;;;;;;4968213;28;20187;-85
2022/01/19 11:33:11;;;;;;;18.05;8.68;;;4.70;99.90;;;;;;4964221;28;20505;-85
2022/01/19 11:35:38;;;;;;;17.55;9.52;;;4.90;99.90;;;;;;4953562;28;20583;-85
2022/01/19 11:38:32;;;;;;;13.23;7.18;;;4.90;99.90;;;;;;4955089;28;20194;-85
2022/01/19 11:41:04;;;;;;;12.25;7.65;;;4.90;99.90;;;;;;4951912;28;20206;-85
2022/01/19 11:43:31;;;;;;;14.05;7.75;;;4.90;99.90;;;;;;4960261;28;20204;-85
2022/01/19 11:45:58;;;;;;;18.02;9.23;;;4.80;99.90;;;;;;4954215;28;20204;-85
2022/01/19 11:48:26;;;;;;;16.25;9.18;;;4.80;99.90;;;;;;4967950;28;20259;-86
2022/01/19 11:50:54;;;;;;;16.33;9.25;;;4.90;99.90;;;;;;4964601;28;20176;-86
2022/01/19 11:53:21;;;;;;;15.30;9.30;;;4.80;99.90;;;;;;4951798;28;20569;-85
2022/01/19 11:56:08;;;;;;;13.68;6.65;;;5.10;99.90;;;;;;4968821;28;20292;-86
2022/01/19 11:58:35;;;;;;;17.70;8.60;;;5.00;99.90;;;;;;4956531;28;20713;-84
2022/01/19 12:01:01;;;;;;;13.10;7.53;;;5.00;99.90;;;;;;4955106;28;20192;-86
2022/01/19 12:03:33;;;;;;;11.60;6.82;;;5.00;99.90;;;;;;4958335;28;20588;-86
2022/01/19 12:05:59;;;;;;;18.20;10.20;;;;;;;;;;4960744;28;20206;-86
2022/01/19 12:08:27;;;;;;;12.67;7.00;;;5.20;99.90;;;;;;4964514;28;20180;-84
2022/01/19 12:10:57;;;;;;;11.55;7.65;;;5.20;99.90;;;;;;4964284;28;20516;-85
2022/01/19 12:16:11;;;;;;;14.30;8.18;;;5.40;99.90;;;;;;4959880;28;20326;-82
2022/01/19 12:18:57;;;;;;;12.80;6.22;;;5.40;99.90;;;;;;4947590;28;20187;-83
2022/01/19 12:21:32;;;;;;;13.10;7.85;;;5.10;99.90;;;;;;4961481;28;20190;-85
2022/01/19 12:24:19;;;;;;;10.38;5.82;;;5.00;99.90;;;;;;4962441;28;20211;-84
2022/01/19 12:26:55;;;;;;;11.73;6.53;;;5.00;99.90;;;;;;4962156;28;20674;-84
2022/01/19 12:29:36;;;;;;;18.63;9.88;;;5.00;99.90;;;;;;4954670;28;20182;-82
2022/01/19 12:32:25;;;;;;;16.90;7.97;;;5.20;99.90;;;;;;4961139;28;20204;-82
2022/01/19 12:34:55;;;;;;;8.25;5.43;;;5.30;99.90;;;;;;4988903;28;20224;-85
2022/01/19 12:37:26;;;;;;;12.80;7.63;;;5.20;99.90;;;;;;4961794;28;20520;-84
2022/01/19 12:39:52;;;;;;;13.48;9.18;;;5.20;99.90;;;;;;4956535;28;20188;-84
2022/01/19 12:42:24;;;;;;;13.80;8.27;;;5.40;99.90;;;;;;4964904;28;20294;-85
2022/01/19 12:44:55;;;;;;;16.80;7.90;;;5.30;99.90;;;;;;4965516;28;20215;-85
2022/01/19 12:47:41;;;;;;;10.18;7.18;;;5.30;99.90;;;;;;4967486;28;20212;-83
2022/01/19 12:50:06;;;;;;;12.95;7.72;;;5.30;99.90;;;;;;4961161;28;20943;-85
2022/01/19 12:52:34;;;;;;;14.53;8.90;;;5.30;99.90;;;;;;4970219;28;20187;-84
2022/01/19 12:55:12;;;;;;;12.05;7.22;;;5.20;99.90;;;;;;4978269;28;20215;-83
2022/01/19 12:57:37;;;;;;;12.38;8.35;;;5.20;99.90;;;;;;4970724;28;20394;-83
2022/01/19 13:00:08;;;;;;;12.67;7.90;;;5.30;99.90;;;;;;4971227;28;20219;-85
2022/01/19 13:02:34;;;;;;;10.82;6.38;;;;;;;;;;4971783;28;20291;-83
2022/01/19 13:05:14;;;;;;;13.27;6.55;;;5.10;99.90;;;;;;4971437;28;20208;-83
2022/01/19 13:07:45;;;;;;;12.02;7.00;;;5.10;99.90;;;;;;4966360;28;20175;-84
2022/01/19 13:10:23;;;;;;;12.35;7.32;;;5.20;99.90;;;;;;4965618;28;20259;-84
2022/01/19 13:13:04;;;;;;;14.38;7.55;;;5.20;99.90;;;;;;4962569;28;20593;-82
2022/01/19 13:15:46;;;;;;;14.02;8.70;;;5.20;99.90;;;;;;4967585;28;20199;-82
2022/01/19 13:18:14;;;;;;;15.25;7.72;;;5.20;99.90;;;;;;4961015;28;20193;-83
2022/01/19 13:20:54;;;;;;;12.05;7.07;;;5.20;99.90;;;;;;4963765;28;20215;-85
2022/01/19 13:23:20;;;;;;;12.32;7.05;;;5.10;99.90;;;;;;4966053;28;20211;-84
2022/01/19 13:25:58;;;;;;;17.27;8.97;;;5.00;99.90;;;;;;4967266;28;20604;-82
2022/01/19 13:28:30;;;;;;;14.10;8.57;;;5.10;99.90;;;;;;4963520;28;20423;-84
2022/01/19 13:30:57;;;;;;;11.98;7.55;;;5.20;99.90;;;;;;4966663;28;21242;-84
2022/01/19 13:33:24;;;;;;;12.32;6.60;;;5.20;99.90;;;;;;4966389;28;20216;-84
2022/01/19 13:36:00;;;;;;;14.48;8.30;;;5.10;99.90;;;;;;4969607;28;20207;-83
2022/01/19 13:38:26;;;;;;;13.85;6.97;;;5.20;99.90;;;;;;4959224;28;20190;-84
2022/01/19 13:41:00;;;;;;;10.52;6.10;;;5.10;99.90;;;;;;4959951;28;20290;-83
2022/01/19 13:43:26;;;;;;;18.20;7.95;;;5.00;99.90;;;;;;4960203;28;20219;-83
2022/01/19 13:46:01;;;;;;;12.60;7.30;;;;;;;;;;4958596;28;20204;-83
2022/01/19 13:50:56;;;;;;;13.30;7.57;;;5.20;99.90;;;;;;4953415;28;20187;-84
2022/01/19 13:53:32;;;;;;;12.65;7.03;;;5.00;99.90;;;;;;4956387;28;20449;-84
2022/01/19 13:55:59;;;;;;;16.17;8.15;;;4.90;99.90;;;;;;4960809;28;20207;-85
2022/01/19 13:58:47;;;;;;;14.20;8.25;;;4.90;99.90;;;;;;4950764;28;21143;-84
2022/01/19 14:01:20;;;;;;;15.23;8.90;;;4.90;99.90;;;;;;4958795;28;20322;-84
2022/01/19 14:03:52;;;;;;;11.95;7.05;;;4.90;99.90;;;;;;4959293;28;20196;-82
2022/01/19 14:06:23;;;;;;;10.27;6.88;;;4.80;99.90;;;;;;4954811;28;20232;-83
2022/01/19 14:08:49;;;;;;;20.30;9.30;;;4.70;99.90;;;;;;4952681;28;20275;-84
2022/01/19 14:11:25;;;;;;;15.63;8.27;;;4.80;99.90;;;;;;4971806;28;20215;-83
2022/01/19 14:14:04;;;;;;;14.23;8.65;;;4.70;99.90;;;;;;4971032;28;20194;-83
2022/01/19 14:16:35;;;;;;;18.48;11.18;;;4.80;99.90;;;;;;4964714;28;20199;-84
2022/01/19 14:19:05;;;;;;;15.52;9.18;;;4.80;99.90;;;;;;4980378;28;20214;-85
2022/01/19 14:21:31;;;;;;;13.68;9.02;;;;;;;;;;4970932;28;20251;-84
2022/01/19 14:24:01;;;;;;;16.58;10.07;;;4.60;99.90;;;;;;4970924;28;20192;-84
2022/01/19 14:26:27;;;;;;;13.60;9.50;;;4.60;99.90;;;;;;4964283;28;20349;-83
2022/01/19 14:29:13;;;;;;;20.17;8.57;;;4.60;99.90;;;;;;4965026;28;20281;-85
2022/01/19 14:31:50;;;;;;;16.23;9.30;;;4.50;99.90;;;;;;4967777;28;20458;-84
2022/01/19 14:34:30;;;;;;;17.80;10.18;;;4.50;99.90;;;;;;4965560;28;20195;-84
2022/01/19 14:37:08;;;;;;;17.95;8.63;;;4.40;99.90;;;;;;4961399;28;20667;-85
2022/01/19 14:39:47;;;;;;;14.45;8.82;;;4.40;99.90;;;;;;4956618;28;20195;-84
2022/01/19 14:42:13;;;;;;;15.57;8.98;;;4.30;99.90;;;;;;4952697;28;20223;-83